Time;durP1;ratioP1;P1;durP2;ratioP2;P2;SDS_P1;SDS_P2;PMS_P1;PMS_P2;Temp;Humidity;BMP_temperature;BMP_pressure;BME280_temperature;BME280_humidity;BME280_pressure;Samples;Min_cycle;Max_cycle;Signal;HPM_P1;HPM_P2
2022/03/29 00:02:11;;;;;;;24.47;13.23;;;;;;;14.74;45.25;100392.19;5101901;27;20213;-69
2022/03/29 00:04:40;;;;;;;26.43;12.63;;;;;;;14.73;45.42;100385.19;5102769;28;20291;-69
2022/03/29 00:07:08;;;;;;;23.73;13.50;;;;;;;14.72;45.49;100386.19;5103459;28;20217;-69
2022/03/29 00:09:36;;;;;;;27.17;13.83;;;;;;;14.67;45.45;100382.22;5097630;28;20217;-69
2022/03/29 00:12:04;;;;;;;25.57;13.97;;;;;;;14.66;45.57;100375.22;5098511;27;20219;-69
2022/03/29 00:14:32;;;;;;;26.87;15.17;;;;;;;14.66;45.42;100380.56;5102066;27;20217;-69
2022/03/29 00:16:59;;;;;;;22.53;13.60;;;;;;;14.64;45.57;100382.56;5103349;28;20224;-69
2022/03/29 00:19:27;;;;;;;25.13;13.60;;;;;;;14.62;45.63;100368.56;5101318;27;20208;-69
2022/03/29 00:21:56;;;;;;;22.40;13.37;;;;;;;14.56;45.79;100368.44;5101637;27;20229;-69
2022/03/29 00:24:24;;;;;;;24.97;13.33;;;;;;;14.54;46.31;100365.13;5096090;27;20233;-69
2022/03/29 00:26:52;;;;;;;22.30;13.00;;;;;;;14.51;46.59;100360.97;5099555;27;20291;-69
2022/03/29 00:29:20;;;;;;;28.53;13.13;;;;;;;14.50;46.31;100358.50;5099271;28;20674;-69
2022/03/29 00:31:47;;;;;;;25.53;14.40;;;;;;;14.52;46.58;100356.44;5102333;28;20332;-69
2022/03/29 00:34:15;;;;;;;24.37;14.50;;;;;;;14.49;46.47;100351.50;5100577;28;20747;-69
2022/03/29 00:36:43;;;;;;;24.37;14.07;;;;;;;14.48;46.52;100350.66;5101852;27;20330;-69
2022/03/29 00:39:12;;;;;;;24.17;13.60;;;;;;;14.42;46.54;100356.72;5095894;27;20577;-69
2022/03/29 00:41:40;;;;;;;23.13;12.73;;;;;;;14.37;46.87;100348.34;5103436;28;20263;-69
2022/03/29 00:44:07;;;;;;;24.63;13.40;;;;;;;14.37;46.78;100348.34;5105378;28;20201;-69
2022/03/29 00:46:35;;;;;;;23.97;13.43;;;;;;;14.33;47.19;100347.06;5099115;27;20206;-69
2022/03/29 00:49:03;;;;;;;25.87;13.73;;;;;;;14.31;47.37;100339.22;5100860;27;20232;-69
2022/03/29 00:51:31;;;;;;;24.20;12.77;;;;;;;14.26;47.58;100340.72;5102309;28;20507;-69
2022/03/29 00:53:59;;;;;;;25.13;13.60;;;;;;;14.26;47.44;100335.41;5104266;28;20235;-69
2022/03/29 00:56:28;;;;;;;25.63;14.40;;;;;;;14.28;47.54;100338.72;5102604;28;20317;-69
2022/03/29 00:58:56;;;;;;;24.73;15.07;;;;;;;14.26;47.60;100332.72;5101248;28;20212;-69
2022/03/29 01:01:34;;;;;;;25.60;13.97;;;;;;;14.29;47.74;100340.41;5096656;28;20555;-69
2022/03/29 01:04:02;;;;;;;25.30;15.20;;;;;;;14.28;47.68;100339.56;5103082;27;20415;-69
2022/03/29 01:06:30;;;;;;;27.17;14.60;;;;;;;14.25;47.63;100328.41;5100135;28;20556;-69
2022/03/29 01:08:58;;;;;;;27.40;15.70;;;;;;;14.16;48.09;100329.47;5099882;28;20234;-68
2022/03/29 01:11:27;;;;;;;31.90;16.70;;;;;;;14.20;48.16;100320.94;5097960;28;20210;-68
2022/03/29 01:13:55;;;;;;;29.03;15.57;;;;;;;14.21;47.80;100322.59;5098208;28;20213;-68
2022/03/29 01:19:12;;;;;;;25.53;15.53;;;;;;;13.94;49.31;100315.91;5098995;28;20207;-69
2022/03/29 01:21:42;;;;;;;27.70;16.03;;;;;;;13.65;50.16;100321.00;5098095;28;20319;-69
2022/03/29 01:24:13;;;;;;;31.77;16.63;;;;;;;13.33;51.06;100315.78;5103589;28;20241;-68
2022/03/29 01:26:41;;;;;;;30.97;17.57;;;;;;;13.41;50.71;100318.41;5100489;28;20195;-68
2022/03/29 01:29:09;;;;;;;36.57;17.57;;;;;;;13.23;51.19;100304.47;5095003;28;20214;-69
2022/03/29 01:31:38;;;;;;;33.23;17.07;;;;;;;13.31;51.03;100307.13;5097673;28;20294;-68
2022/03/29 01:34:06;;;;;;;34.07;16.63;;;;;;;13.63;50.39;100307.03;5103466;28;20208;-68
2022/03/29 01:36:36;;;;;;;29.97;16.63;;;;;;;13.76;50.18;100307.31;5100835;27;20252;-68
2022/03/29 01:39:04;;;;;;;32.47;17.00;;;;;;;13.67;50.22;100291.53;5106711;27;20207;-69
2022/03/29 01:41:33;;;;;;;35.00;16.93;;;;;;;13.77;49.94;100293.00;5104155;27;20223;-69
2022/03/29 01:44:02;;;;;;;33.37;17.50;;;;;;;13.36;51.53;100291.47;5105084;27;20296;-69
2022/03/29 01:46:29;;;;;;;29.67;16.10;;;;;;;13.10;52.15;100292.50;5108315;27;20213;-68
2022/03/29 01:49:00;;;;;;;33.10;17.23;;;;;;;13.21;51.96;100293.16;5106446;27;20213;-69
2022/03/29 01:51:28;;;;;;;30.03;16.83;;;;;;;13.49;51.35;100297.09;5104364;28;20213;-69
2022/03/29 01:53:59;;;;;;;33.83;16.67;;;;;;;13.53;51.03;100290.41;5104010;28;20271;-69
2022/03/29 01:56:27;;;;;;;30.97;17.10;;;;;;;13.69;50.30;100278.88;5106650;27;20206;-69
2022/03/29 01:58:57;;;;;;;30.07;16.63;;;;;;;13.72;50.03;100290.00;5107863;27;20303;-69
2022/03/29 02:01:24;;;;;;;29.53;17.30;;;;;;;13.73;50.00;100288.16;5103802;27;20348;-69
2022/03/29 02:03:52;;;;;;;31.67;16.87;;;;;;;13.77;49.83;100276.16;5102354;28;20206;-69
2022/03/29 02:06:20;;;;;;;34.53;19.13;;;;;;;13.78;49.89;100286.66;5103237;27;20749;-69
2022/03/29 02:08:48;;;;;;;34.23;17.83;;;;;;;13.78;49.62;100283.16;5099960;27;20211;-69
2022/03/29 02:11:16;;;;;;;30.83;17.70;;;;;;;13.70;50.06;100281.38;5101761;27;20204;-69
2022/03/29 02:13:46;;;;;;;35.80;17.73;;;;;;;13.78;49.81;100280.50;5101793;27;20220;-69
2022/03/29 02:16:17;;;;;;;34.23;18.67;;;;;;;13.77;50.32;100279.66;5100834;27;20731;-69
2022/03/29 02:18:45;;;;;;;32.00;19.57;;;;;;;13.77;49.72;100287.66;5100843;28;20217;-69
2022/03/29 02:21:14;;;;;;;32.90;18.33;;;;;;;13.74;49.85;100276.50;5102423;27;20276;-69
2022/03/29 02:23:42;;;;;;;38.90;19.70;;;;;;;13.67;50.53;100275.53;5106544;27;20281;-69
2022/03/29 02:26:10;;;;;;;32.33;18.33;;;;;;;13.65;50.22;100273.03;5106656;27;20293;-69
2022/03/29 02:28:38;;;;;;;36.50;19.93;;;;;;;13.63;50.44;100269.75;5101804;27;20288;-69
2022/03/29 02:31:06;;;;;;;32.17;18.67;;;;;;;13.65;50.19;100261.56;5103964;27;20205;-69
2022/03/29 02:33:35;;;;;;;33.80;20.03;;;;;;;13.59;50.44;100260.44;5102322;27;20214;-69
2022/03/29 02:36:03;;;;;;;34.67;18.70;;;;;;;13.57;50.37;100262.41;5100521;27;20252;-69
2022/03/29 02:38:31;;;;;;;41.03;19.93;;;;;;;13.53;51.03;100258.47;5081596;28;20624;-69
2022/03/29 02:41:08;;;;;;;40.17;20.80;;;;;;;13.56;50.58;100258.94;5080691;28;20296;-69
2022/03/29 02:43:36;;;;;;;37.30;21.27;;;;;;;13.56;50.64;100250.09;5086176;28;20606;-69
2022/03/29 02:46:04;;;;;;;37.13;19.83;;;;;;;13.55;50.81;100256.44;5084565;28;20218;-69
2022/03/29 02:48:32;;;;;;;35.90;19.97;;;;;;;13.58;50.85;100248.09;5083803;28;20340;-69
2022/03/29 02:51:02;;;;;;;36.20;20.30;;;;;;;13.55;50.57;100245.78;5090695;28;20230;-69
2022/03/29 02:53:29;;;;;;;33.77;19.93;;;;;;;13.60;50.49;100238.09;5075588;28;20243;-69
2022/03/29 02:55:58;;;;;;;35.27;20.13;;;;;;;13.58;50.59;100240.09;5084238;28;20256;-69
2022/03/29 02:58:26;;;;;;;37.90;20.60;;;;;;;13.53;50.82;100237.16;5091538;28;20293;-69
2022/03/29 03:00:53;;;;;;;35.87;20.40;;;;;;;13.57;50.74;100235.78;5081450;28;20209;-69
2022/03/29 03:03:21;;;;;;;35.30;20.47;;;;;;;13.52;50.83;100231.00;5086342;28;20292;-69
2022/03/29 03:05:49;;;;;;;38.67;21.27;;;;;;;13.54;50.96;100228.16;5087662;28;20203;-69
2022/03/29 03:08:18;;;;;;;33.97;20.40;;;;;;;13.52;51.12;100233.66;5085614;28;20207;-69
2022/03/29 03:10:46;;;;;;;35.07;19.73;;;;;;;13.49;51.18;100228.66;5085675;28;20303;-69
2022/03/29 03:13:14;;;;;;;37.70;20.37;;;;;;;13.46;51.23;100231.66;5085190;28;20213;-69
2022/03/29 03:15:42;;;;;;;37.07;20.67;;;;;;;13.42;51.29;100224.19;5084763;28;20317;-69
2022/03/29 03:18:11;;;;;;;32.37;19.23;;;;;;;13.43;51.21;100233.84;5087702;28;20334;-69
2022/03/29 03:20:41;;;;;;;34.00;19.83;;;;;;;13.42;51.36;100229.53;5084603;28;20214;-69
2022/03/29 03:23:19;;;;;;;37.33;20.20;;;;;;;13.39;51.29;100233.34;5089403;28;20549;-69
2022/03/29 03:25:48;;;;;;;39.87;20.63;;;;;;;13.38;51.72;100220.19;5087724;28;20701;-68
2022/03/29 03:28:16;;;;;;;38.33;21.73;;;;;;;13.37;51.66;100231.88;5093350;28;20297;-69
2022/03/29 03:30:44;;;;;;;36.37;20.80;;;;;;;13.34;51.66;100226.88;5086647;28;20202;-69
2022/03/29 03:33:12;;;;;;;40.07;20.00;;;;;;;13.34;51.94;100225.06;5086362;28;20195;-69
2022/03/29 03:35:39;;;;;;;37.83;21.10;;;;;;;13.34;51.70;100216.25;5083099;28;20257;-69
2022/03/29 03:38:08;;;;;;;35.50;20.23;;;;;;;13.33;51.84;100223.41;5103246;27;20240;-69
2022/03/29 03:40:37;;;;;;;36.93;21.43;;;;;;;13.29;51.96;100219.41;5105174;28;20229;-68
2022/03/29 03:43:05;;;;;;;31.37;20.93;;;;;;;13.30;51.80;100214.91;5106346;27;20218;-67
2022/03/29 03:45:33;;;;;;;35.63;19.97;;;;;;;13.23;52.32;100203.28;5106305;27;20207;-68
2022/03/29 03:48:01;;;;;;;36.00;21.27;;;;;;;13.24;52.14;100204.94;5104787;27;20291;-69
2022/03/29 03:50:30;;;;;;;38.13;20.43;;;;;;;13.24;52.12;100200.47;5103017;28;20210;-69
2022/03/29 03:52:59;;;;;;;34.73;19.30;;;;;;;13.21;52.35;100190.13;5099736;27;20497;-68
2022/03/29 03:55:27;;;;;;;39.73;21.20;;;;;;;13.14;52.55;100192.66;5101633;27;20606;-68
2022/03/29 03:57:57;;;;;;;35.40;20.93;;;;;;;13.15;52.52;100191.66;5098395;28;20765;-68
2022/03/29 04:00:24;;;;;;;36.70;21.43;;;;;;;13.17;52.42;100189.66;5102513;28;21954;-69
2022/03/29 04:02:53;;;;;;;42.67;21.97;;;;;;;13.19;52.43;100186.84;5103409;27;20229;-68
2022/03/29 04:05:21;;;;;;;38.60;21.43;;;;;;;13.16;52.34;100180.03;5104519;28;20254;-68
2022/03/29 04:07:49;;;;;;;43.97;23.57;;;;;;;13.16;52.45;100179.19;5098981;28;20294;-68
2022/03/29 04:10:19;;;;;;;40.63;21.90;;;;;;;13.18;52.44;100182.50;5101451;28;20643;-68
2022/03/29 04:12:47;;;;;;;41.63;21.67;;;;;;;13.18;52.55;100179.84;5104307;28;20209;-68
2022/03/29 04:15:16;;;;;;;38.23;22.47;;;;;;;13.17;52.45;100179.03;5102634;27;20527;-69
2022/03/29 04:17:43;;;;;;;43.17;23.80;;;;;;;13.17;52.69;100173.69;5099683;27;20206;-69
2022/03/29 04:20:11;;;;;;;38.17;22.87;;;;;;;13.19;52.67;100166.34;5102518;27;20359;-69
2022/03/29 04:22:39;;;;;;;37.90;21.53;;;;;;;13.16;52.63;100164.06;5102318;27;20265;-68
2022/03/29 04:25:08;;;;;;;43.40;22.93;;;;;;;13.15;52.87;100164.22;5101531;27;20801;-68
2022/03/29 04:27:36;;;;;;;43.67;23.47;;;;;;;13.19;52.62;100171.66;5103699;28;20206;-69
2022/03/29 04:30:05;;;;;;;39.60;22.80;;;;;;;13.18;52.48;100163.88;5101194;28;20221;-69
2022/03/29 04:32:36;;;;;;;42.77;22.37;;;;;;;13.17;52.79;100165.72;5104283;27;20643;-69
2022/03/29 04:35:05;;;;;;;40.87;23.10;;;;;;;13.13;52.51;100160.84;5100873;28;20396;-67
2022/03/29 04:37:33;;;;;;;42.50;24.20;;;;;;;13.16;52.73;100161.38;5106542;27;20253;-68
2022/03/29 04:40:01;;;;;;;48.27;23.63;;;;;;;13.14;52.88;100162.56;5104814;27;20214;-69
2022/03/29 04:42:29;;;;;;;41.50;22.97;;;;;;;13.14;52.97;100167.88;5100007;28;20325;-69
2022/03/29 04:44:57;;;;;;;43.07;24.03;;;;;;;13.11;53.10;100169.00;5108100;28;20207;-68
2022/03/29 04:47:24;;;;;;;43.73;22.63;;;;;;;13.11;53.14;100166.34;5098032;28;20221;-68
2022/03/29 04:49:53;;;;;;;40.80;23.40;;;;;;;13.06;53.35;100165.22;5100259;28;20282;-69
2022/03/29 04:52:21;;;;;;;45.40;24.00;;;;;;;13.08;53.26;100158.72;5100865;27;20220;-69
2022/03/29 04:54:49;;;;;;;46.63;25.00;;;;;;;13.09;53.42;100164.88;5099175;28;20301;-69
2022/03/29 04:57:16;;;;;;;43.77;25.17;;;;;;;13.06;53.43;100155.41;5101892;27;20652;-69
2022/03/29 04:59:44;;;;;;;44.13;24.67;;;;;;;13.11;53.24;100155.69;5103983;27;20551;-70
2022/03/29 05:02:15;;;;;;;47.93;24.83;;;;;;;13.06;53.67;100152.72;5099294;27;20207;-69
2022/03/29 05:04:43;;;;;;;45.10;24.00;;;;;;;13.09;53.62;100155.06;5100288;28;20202;-69
2022/03/29 05:07:12;;;;;;;51.90;25.57;;;;;;;13.10;53.78;100151.41;5101224;27;20732;-69
2022/03/29 05:09:39;;;;;;;42.70;24.93;;;;;;;13.08;53.73;100150.75;5102513;28;20221;-69
2022/03/29 05:12:08;;;;;;;48.30;24.70;;;;;;;13.08;53.85;100150.75;5100757;28;20255;-69
2022/03/29 05:14:36;;;;;;;44.13;24.57;;;;;;;13.06;54.10;100155.41;5102943;28;20494;-69
2022/03/29 05:17:04;;;;;;;42.00;24.33;;;;;;;13.03;54.42;100154.91;5101866;28;20206;-70
2022/03/29 05:19:32;;;;;;;43.13;25.97;;;;;;;13.03;54.23;100155.72;5097764;28;21053;-68
2022/03/29 05:21:59;;;;;;;45.80;24.97;;;;;;;13.04;54.27;100154.72;5100552;28;20265;-69
2022/03/29 05:24:29;;;;;;;42.73;24.30;;;;;;;13.04;54.17;100157.41;5099710;27;20217;-69
2022/03/29 05:26:56;;;;;;;41.80;24.30;;;;;;;13.03;54.24;100152.22;5099693;28;20198;-68
2022/03/29 05:29:25;;;;;;;50.57;25.93;;;;;;;13.00;54.53;100148.09;5095418;28;20206;-69
2022/03/29 05:31:52;;;;;;;47.03;25.00;;;;;;;13.00;54.31;100150.78;5102588;28;20279;-69
2022/03/29 05:34:20;;;;;;;50.13;25.60;;;;;;;12.98;54.50;100158.09;5104695;28;20198;-68
2022/03/29 05:36:49;;;;;;;49.33;25.33;;;;;;;13.01;54.41;100155.09;5101095;28;20481;-69
2022/03/29 05:39:17;;;;;;;48.20;24.47;;;;;;;13.01;54.33;100152.44;5104123;28;20659;-68
2022/03/29 05:41:46;;;;;;;50.10;27.20;;;;;;;13.03;54.31;100155.72;5100592;28;20301;-68
2022/03/29 05:44:14;;;;;;;49.13;26.13;;;;;;;13.01;54.36;100152.44;5104700;28;20225;-69
2022/03/29 05:49:27;;;;;;;45.77;26.30;;;;;;;13.03;54.54;100154.91;5097853;28;20210;-69
2022/03/29 05:51:55;;;;;;;45.90;26.33;;;;;;;13.00;54.60;100144.63;5102830;28;20222;-70
2022/03/29 05:54:23;;;;;;;44.33;26.50;;;;;;;13.06;54.69;100151.91;5104527;28;20305;-69
2022/03/29 05:56:54;;;;;;;43.17;25.73;;;;;;;13.09;54.27;100151.56;5105084;28;20235;-69
2022/03/29 05:59:21;;;;;;;47.40;25.30;;;;;;;13.09;54.55;100156.91;5104234;28;20678;-69
2022/03/29 06:01:54;;;;;;;43.77;25.50;;;;;;;13.05;54.86;100155.56;5096885;28;20491;-68
2022/03/29 06:04:22;;;;;;;46.33;26.40;;;;;;;13.13;54.38;100153.72;5105014;28;20222;-69
2022/03/29 06:06:50;;;;;;;44.40;26.10;;;;;;;13.15;54.49;100145.59;5096160;28;20217;-69
2022/03/29 06:09:18;;;;;;;50.00;27.47;;;;;;;13.19;54.13;100153.03;5097533;28;20333;-69
2022/03/29 06:11:47;;;;;;;48.13;26.80;;;;;;;13.24;54.51;100167.69;5097726;28;20321;-68
2022/03/29 06:14:16;;;;;;;47.33;27.27;;;;;;;13.23;54.59;100166.84;5102483;28;20205;-68
2022/03/29 06:16:44;;;;;;;47.13;26.63;;;;;;;13.24;54.34;100168.50;5106608;28;20233;-69
2022/03/29 06:19:12;;;;;;;49.10;25.77;;;;;;;13.32;54.35;100170.31;5114296;28;20202;-68
2022/03/29 06:21:41;;;;;;;49.47;27.03;;;;;;;13.34;54.54;100168.31;5104946;28;20239;-68
2022/03/29 06:24:10;;;;;;;41.63;22.97;;;;;;;13.27;56.13;100167.34;5107262;28;20262;-62
2022/03/29 06:26:39;;;;;;;58.53;25.37;;;;;;;13.30;55.28;100177.63;5113185;27;20265;-68
2022/03/29 06:29:07;;;;;;;45.23;25.80;;;;;;;13.41;54.56;100177.25;5112535;27;20290;-68
2022/03/29 06:31:37;;;;;;;52.47;26.37;;;;;;;13.46;54.70;100177.56;5110789;28;20235;-69
2022/03/29 06:34:06;;;;;;;53.03;25.37;;;;;;;13.47;54.47;100180.03;5106708;27;20206;-68
2022/03/29 06:36:33;;;;;;;45.40;24.37;;;;;;;13.51;54.72;100183.22;5104739;28;20226;-68
2022/03/29 06:39:04;;;;;;;43.57;25.53;;;;;;;13.54;54.88;100181.00;5104161;27;20283;-68
2022/03/29 06:41:32;;;;;;;50.20;27.80;;;;;;;13.56;54.64;100172.84;5108705;28;20214;-68
2022/03/29 06:44:00;;;;;;;46.53;26.90;;;;;;;13.44;56.12;100179.59;5109060;27;20429;-69
2022/03/29 06:46:27;;;;;;;48.80;27.07;;;;;;;13.22;56.93;100172.34;5103164;27;20209;-69
2022/03/29 06:48:57;;;;;;;50.07;27.30;;;;;;;13.46;56.16;100174.88;5106179;27;20212;-68
2022/03/29 06:51:27;;;;;;;44.97;25.90;;;;;;;13.60;55.45;100184.00;5108174;28;20654;-69
2022/03/29 06:53:54;;;;;;;56.63;27.97;;;;;;;13.66;55.03;100169.97;5105970;28;20209;-68
2022/03/29 06:56:22;;;;;;;43.67;26.27;;;;;;;13.67;55.30;100183.13;5105975;28;20570;-68
2022/03/29 06:58:50;;;;;;;44.13;27.93;;;;;;;13.66;55.23;100169.97;5105834;28;20552;-69
2022/03/29 07:01:18;;;;;;;45.27;26.73;;;;;;;13.54;55.70;100169.56;5108838;27;20699;-68
2022/03/29 07:03:46;;;;;;;44.33;27.00;;;;;;;13.46;56.10;100166.91;5104530;28;20255;-68
2022/03/29 07:06:15;;;;;;;42.17;25.63;;;;;;;13.65;55.45;100166.47;5104965;27;20618;-68
2022/03/29 07:11:16;;;;;;;46.33;26.20;;;;;;;13.75;55.35;100172.41;5103265;27;20211;-69
2022/03/29 07:11:54;;;;;;;46.30;26.37;;;;;;;13.72;55.01;100172.75;5104047;28;20228;-69
2022/03/29 07:14:22;;;;;;;44.40;26.33;;;;;;;13.62;56.08;100174.00;5106780;27;20209;-68
2022/03/29 07:16:50;;;;;;;47.47;26.83;;;;;;;13.64;56.59;100163.97;5106859;28;20238;-68
2022/03/29 07:19:18;;;;;;;45.13;25.60;;;;;;;13.82;55.60;100168.03;5103883;27;20213;-68
2022/03/29 07:21:49;;;;;;;49.47;27.00;;;;;;;13.83;55.71;100166.19;5106315;28;20635;-69
2022/03/29 07:24:22;;;;;;;46.83;26.23;;;;;;;13.76;56.71;100163.41;5105054;27;20232;-69
2022/03/29 07:26:53;;;;;;;48.93;26.63;;;;;;;13.97;55.77;100164.63;5103250;27;20656;-69
2022/03/29 07:29:20;;;;;;;49.10;26.70;;;;;;;14.06;55.70;100160.91;5104263;27;20557;-69
2022/03/29 07:31:48;;;;;;;43.97;25.93;;;;;;;14.14;55.22;100172.31;5105953;28;20213;-68
2022/03/29 07:34:16;;;;;;;45.83;25.73;;;;;;;14.15;55.54;100178.50;5106284;27;20209;-69
2022/03/29 07:36:44;;;;;;;41.77;24.77;;;;;;;14.28;54.61;100179.53;5106607;27;20623;-69
2022/03/29 07:39:19;;;;;;;39.77;24.60;;;;;;;14.34;54.69;100172.66;5105488;27;20201;-68
2022/03/29 07:41:48;;;;;;;47.20;26.50;;;;;;;14.16;55.37;100177.50;5104949;27;20667;-68
2022/03/29 07:44:17;;;;;;;44.30;25.63;;;;;;;14.24;54.59;100183.59;5106077;28;20224;-68
2022/03/29 07:46:45;;;;;;;43.37;25.47;;;;;;;14.47;53.99;100183.59;5105067;27;20273;-68
2022/03/29 07:49:13;;;;;;;45.77;25.33;;;;;;;14.31;54.45;100189.03;5111761;27;20587;-70
2022/03/29 07:52:01;;;;;;;43.97;24.10;;;;;;;14.60;53.57;100181.13;5104277;28;20205;-68
2022/03/29 07:54:30;;;;;;;41.73;23.57;;;;;;;14.48;53.51;100173.75;5104189;28;20309;-69
2022/03/29 07:56:59;;;;;;;42.13;22.77;;;;;;;14.59;53.71;100171.47;5104815;27;20212;-69
2022/03/29 07:59:27;;;;;;;50.10;23.40;;;;;;;14.41;53.96;100178.16;5103352;28;20217;-68
2022/03/29 08:01:54;;;;;;;42.90;24.87;;;;;;;14.21;54.53;100167.09;5106182;28;20198;-68
2022/03/29 08:04:23;;;;;;;46.57;23.97;;;;;;;14.53;54.24;100174.84;5107628;27;20226;-68
2022/03/29 08:06:51;;;;;;;46.83;24.20;;;;;;;14.88;53.02;100164.50;5107095;28;20633;-69
2022/03/29 08:09:20;;;;;;;45.23;23.87;;;;;;;14.98;52.62;100163.22;5104906;28;20203;-68
2022/03/29 08:11:50;;;;;;;38.50;23.80;;;;;;;15.24;52.15;100156.56;5108625;27;20522;-71
2022/03/29 08:14:18;;;;;;;41.87;23.83;;;;;;;15.28;51.95;100155.22;5106090;28;20383;-67
2022/03/29 08:16:48;;;;;;;42.60;23.70;;;;;;;15.33;51.70;100152.78;5111780;27;20207;-68
2022/03/29 08:19:16;;;;;;;52.57;26.33;;;;;;;15.37;52.34;100148.75;5106945;28;20221;-69
2022/03/29 08:21:50;;;;;;;40.47;24.27;;;;;;;15.51;52.18;100152.41;5104841;28;20557;-68
2022/03/29 08:24:19;;;;;;;42.70;25.60;;;;;;;15.51;51.67;100155.06;5104877;28;20230;-69
2022/03/29 08:26:47;;;;;;;40.43;25.17;;;;;;;15.64;51.59;100160.63;5109244;27;20292;-67
2022/03/29 08:29:16;;;;;;;46.97;25.53;;;;;;;15.82;50.92;100158.34;5107768;27;20398;-68
2022/03/29 08:31:47;;;;;;;47.53;25.13;;;;;;;16.06;50.98;100157.16;5108631;28;20222;-68
2022/03/29 08:34:18;;;;;;;42.33;22.43;;;;;;;16.30;49.90;100153.25;5107364;28;20728;-69
2022/03/29 08:36:50;;;;;;;37.47;23.40;;;;;;;16.49;49.44;100145.38;5104924;28;20233;-68
2022/03/29 08:39:18;;;;;;;38.30;23.87;;;;;;;16.78;48.57;100144.41;5104069;28;20361;-69
2022/03/29 08:41:47;;;;;;;38.13;22.80;;;;;;;17.25;47.67;100140.94;5104568;28;20565;-69
2022/03/29 08:44:27;;;;;;;36.47;23.63;;;;;;;18.35;44.73;100140.59;5100344;28;20206;-69
2022/03/29 08:46:55;;;;;;;42.60;23.80;;;;;;;19.15;42.69;100139.47;5103395;28;20312;-70
2022/03/29 08:49:24;;;;;;;43.47;24.93;;;;;;;20.40;40.00;100138.00;5105359;28;20618;-69
2022/03/29 08:51:52;;;;;;;36.67;23.53;;;;;;;22.29;36.27;100132.41;5105808;27;20670;-69
2022/03/29 08:54:20;;;;;;;42.87;24.77;;;;;;;22.89;34.92;100132.19;5104159;28;20296;-69
2022/03/29 08:56:48;;;;;;;41.27;25.57;;;;;;;23.24;34.42;100137.56;5107452;28;20589;-69
2022/03/29 08:59:16;;;;;;;37.23;22.80;;;;;;;24.65;32.41;100136.63;5104709;28;20221;-69
2022/03/29 09:01:50;;;;;;;39.13;23.70;;;;;;;25.33;31.43;100131.91;5099721;28;20297;-69
2022/03/29 09:04:22;;;;;;;35.57;23.77;;;;;;;24.73;31.88;100130.78;5105272;28;20288;-69
2022/03/29 09:06:57;;;;;;;40.07;23.87;;;;;;;25.04;31.56;100115.81;5102037;28;20202;-69
2022/03/29 09:09:28;;;;;;;38.20;24.33;;;;;;;24.09;33.01;100124.06;5103431;28;20233;-69
2022/03/29 09:11:56;;;;;;;41.40;23.17;;;;;;;22.92;34.83;100126.34;5102727;28;20216;-69
2022/03/29 09:14:28;;;;;;;34.43;23.17;;;;;;;22.66;34.92;100133.03;5100657;28;21145;-69
2022/03/29 09:16:57;;;;;;;36.37;24.00;;;;;;;22.26;35.51;100137.44;5103788;28;20243;-69
2022/03/29 09:19:25;;;;;;;37.40;23.77;;;;;;;21.84;37.10;100134.72;5101174;28;20251;-69
2022/03/29 09:22:12;;;;;;;38.40;24.23;;;;;;;21.01;38.05;100134.50;5103872;27;20572;-68
2022/03/29 09:24:55;;;;;;;40.87;24.83;;;;;;;19.63;40.69;100132.88;5097350;28;20527;-68
2022/03/29 09:27:22;;;;;;;38.80;24.43;;;;;;;19.33;41.69;100129.91;5106070;28;20203;-68
2022/03/29 09:30:12;;;;;;;44.13;24.03;;;;;;;18.79;43.18;100136.47;5099242;28;20220;-68
2022/03/29 09:32:53;;;;;;;48.90;26.37;;;;;;;19.16;42.52;100132.25;5100933;28;20212;-69
2022/03/29 09:35:21;;;;;;;42.30;26.07;;;;;;;19.96;41.25;100130.03;5102911;28;20265;-68
2022/03/29 09:37:49;;;;;;;37.70;23.87;;;;;;;21.18;38.48;100122.09;5101163;28;20671;-68
2022/03/29 09:40:17;;;;;;;38.17;24.70;;;;;;;21.14;38.31;100120.03;5103512;28;20647;-69
2022/03/29 09:43:00;;;;;;;45.30;25.23;;;;;;;20.96;38.57;100120.88;5103448;28;20230;-70
2022/03/29 09:45:48;;;;;;;38.50;24.30;;;;;;;21.79;36.48;100118.41;5103525;28;20683;-70
2022/03/29 09:48:30;;;;;;;36.07;24.27;;;;;;;22.48;36.02;100122.31;5108092;28;20206;-69
2022/03/29 09:51:15;;;;;;;40.97;24.53;;;;;;;22.45;36.20;100114.66;5107139;28;20229;-70
2022/03/29 09:53:45;;;;;;;36.22;25.05;;;;;;;21.16;37.70;100101.78;5113008;28;20212;-68
2022/03/29 09:56:15;;;;;;;40.65;26.13;;;;;;;21.05;38.53;100108.75;5105084;28;20198;-69
2022/03/29 09:59:05;;;;;;;37.38;25.92;;;;;;;21.01;38.82;100096.78;5110366;27;20571;-69
2022/03/29 10:01:34;;;;;;;42.72;26.30;;;;;;;21.36;38.20;100092.44;5110942;27;20301;-69
2022/03/29 10:04:04;;;;;;;41.92;26.00;;;;;;;22.21;36.77;100097.63;5111895;28;20213;-70
2022/03/29 10:06:32;;;;;;;36.25;25.35;;;;;;;23.47;34.68;100080.69;5111754;28;20229;-67
2022/03/29 10:11:47;;;;;;;41.40;26.23;;;;;;;23.57;34.28;100080.88;5108309;28;20256;-69
2022/03/29 10:14:20;;;;;;;41.80;27.25;;;;;;;23.94;33.98;100075.03;5107250;28;20217;-69
2022/03/29 10:16:50;;;;;;;37.42;26.45;;;;;;;23.85;33.33;100076.50;5104936;27;20229;-71
2022/03/29 10:19:20;;;;;;;40.50;26.60;;;;;;;24.50;33.06;100067.84;5109755;28;20737;-71
2022/03/29 10:21:47;;;;;;;40.90;26.48;;;;;;;26.22;30.30;100067.06;5106694;27;20202;-71
2022/03/29 10:24:18;;;;;;;39.35;26.55;;;;;;;26.70;29.15;100062.53;5108369;28;20206;-71
2022/03/29 10:26:49;;;;;;;41.97;27.60;;;;;;;23.97;32.78;100050.19;5107308;27;20220;-69
2022/03/29 10:29:17;;;;;;;38.72;26.38;;;;;;;22.82;34.73;100053.13;5106889;27;20267;-70
2022/03/29 10:31:52;;;;;;;41.10;27.13;;;;;;;22.13;36.83;100055.59;5108768;27;20740;-69
2022/03/29 10:34:31;;;;;;;36.92;27.92;;;;;;;22.26;36.17;100038.31;5107925;28;20216;-69
2022/03/29 10:37:08;;;;;;;41.05;26.23;;;;;;;22.64;35.83;100037.84;5108246;27;20240;-69
2022/03/29 10:39:54;;;;;;;38.83;27.05;;;;;;;23.40;34.57;100025.06;5101815;28;20202;-70
2022/03/29 10:42:40;;;;;;;41.22;27.23;;;;;;;23.27;34.68;100024.31;5105594;28;20321;-70
2022/03/29 10:45:13;;;;;;;41.15;28.13;;;;;;;23.82;33.67;100017.44;5110842;28;20214;-70
2022/03/29 10:48:09;;;;;;;38.17;27.17;;;;;;;22.82;34.42;100016.09;5110086;28;20213;-69
2022/03/29 10:50:56;;;;;;;37.47;24.75;;;;;;;22.20;35.84;100014.97;5103330;28;20513;-68
2022/03/29 10:53:24;;;;;;;38.05;28.05;;;;;;;22.91;35.06;100011.13;5104450;27;20445;-69
2022/03/29 10:56:15;;;;;;;40.15;26.98;;;;;;;21.76;36.48;100014.44;5108678;27;20205;-70
2022/03/29 10:59:13;;;;;;;36.20;25.55;;;;;;;21.46;36.81;100002.06;5107415;28;20587;-71
2022/03/29 11:01:42;;;;;;;41.35;26.35;;;;;;;22.16;36.43;99991.38;5100022;27;20211;-70
2022/03/29 11:04:20;;;;;;;40.22;28.30;;;;;;;23.17;34.59;99982.72;5106145;27;20203;-70
2022/03/29 11:07:12;;;;;;;41.17;25.65;;;;;;;22.83;35.23;99981.78;5099418;27;20235;-70
2022/03/29 11:09:46;;;;;;;41.60;25.10;;;;;;;22.72;34.52;99972.63;5109609;27;20290;-72
2022/03/29 11:12:40;;;;;;;37.17;24.88;;;;;;;23.11;34.48;99959.34;5110546;27;20354;-71
2022/03/29 11:15:47;;;;;;;44.13;24.98;;;;;;;22.79;35.15;99954.41;5109649;28;20237;-72
2022/03/29 11:18:45;;;;;;;36.72;25.30;;;;;;;20.80;37.11;99955.22;5107332;28;20261;-71
2022/03/29 11:21:29;;;;;;;38.03;24.90;;;;;;;20.53;38.36;99952.03;5061054;28;20218;-71
2022/03/29 11:24:01;;;;;;;36.83;24.13;;;;;;;20.24;38.73;99948.16;5107939;28;20201;-70
2022/03/29 11:26:29;;;;;;;41.35;24.70;;;;;;;20.35;39.03;99943.94;5113280;27;20251;-70
2022/03/29 11:28:59;;;;;;;37.40;23.85;;;;;;;20.01;39.15;99936.41;5110423;28;20216;-70
2022/03/29 11:31:36;;;;;;;35.90;22.83;;;;;;;20.12;39.54;99933.81;5091762;27;20206;-70
2022/03/29 11:34:05;;;;;;;35.13;22.10;;;;;;;20.37;39.46;99930.28;5107574;28;20632;-71